Time;durP1;ratioP1;P1;durP2;ratioP2;P2;SDS_P1;SDS_P2;PMS_P1;PMS_P2;Temp;Humidity;BMP_temperature;BMP_pressure;BME280_temperature;BME280_humidity;BME280_pressure;Samples;Min_cycle;Max_cycle;Signal;HPM_P1;HPM_P2
2023/12/17 00:02:01;;;;;;;22.10;14.00;;;;;;;-147.90;100.00;59510.75;4994010;28;20045;-77
2023/12/17 00:04:29;;;;;;;25.50;16.48;;;;;;;-147.90;100.00;59510.75;4991286;28;20048;-77
2023/12/17 00:06:56;;;;;;;23.67;15.68;;;;;;;-147.90;100.00;59510.75;4990160;28;20050;-77
2023/12/17 00:09:23;;;;;;;25.90;15.50;;;;;;;-147.90;100.00;59510.75;4989422;28;20052;-77
2023/12/17 00:11:50;;;;;;;27.88;16.50;;;;;;;-147.90;100.00;59510.75;4989690;28;20412;-77
2023/12/17 00:14:18;;;;;;;31.60;17.20;;;;;;;-147.90;100.00;59510.75;4991621;28;20057;-77
2023/12/17 00:16:45;;;;;;;28.45;16.92;;;;;;;-147.90;100.00;59510.75;4993280;28;20066;-77
2023/12/17 00:19:12;;;;;;;27.60;17.27;;;;;;;-147.90;100.00;59510.75;4989397;28;20048;-77
2023/12/17 00:21:40;;;;;;;26.52;15.63;;;;;;;-147.90;100.00;59510.75;4993402;28;20053;-77
2023/12/17 00:24:07;;;;;;;21.08;15.13;;;;;;;-147.90;100.00;59510.75;4991141;28;20054;-77
2023/12/17 00:26:34;;;;;;;18.20;11.80;;;;;;;-147.90;100.00;59510.75;4992075;28;20137;-77
2023/12/17 00:29:01;;;;;;;19.95;11.82;;;;;;;-147.90;100.00;59510.75;4989076;28;20464;-76
2023/12/17 00:31:28;;;;;;;15.88;11.15;;;;;;;-147.90;100.00;59510.75;4990332;28;20051;-76
2023/12/17 00:33:55;;;;;;;16.10;9.88;;;;;;;-147.90;100.00;59510.75;4993040;28;20064;-76
2023/12/17 00:36:22;;;;;;;15.23;10.40;;;;;;;-147.90;100.00;59510.75;5000823;28;20068;-76
2023/12/17 00:38:50;;;;;;;17.90;11.23;;;;;;;-147.90;100.00;59510.75;4990464;28;20053;-77
2023/12/17 00:41:17;;;;;;;13.95;9.73;;;;;;;-147.90;100.00;59510.75;4993863;28;20048;-78
2023/12/17 00:43:44;;;;;;;17.40;10.30;;;;;;;-147.90;100.00;59510.75;4988818;28;20048;-77
2023/12/17 00:46:11;;;;;;;16.05;10.70;;;;;;;-147.90;100.00;59510.75;4990975;28;20587;-78
2023/12/17 00:48:38;;;;;;;17.58;10.68;;;;;;;-147.90;100.00;59510.75;4988755;28;20084;-76
2023/12/17 00:51:05;;;;;;;16.95;10.15;;;;;;;-147.90;100.00;59510.75;4989024;28;20050;-77
2023/12/17 00:53:31;;;;;;;16.02;10.32;;;;;;;-147.90;100.00;59510.75;4991908;28;20420;-77
2023/12/17 00:56:00;;;;;;;20.85;11.73;;;;;;;-147.90;100.00;59510.75;4988513;28;20050;-78
2023/12/17 00:58:27;;;;;;;22.85;13.13;;;;;;;-147.90;100.00;59510.75;4989352;28;20060;-77
2023/12/17 01:00:54;;;;;;;19.27;11.73;;;;;;;-147.90;100.00;59510.75;4988206;28;20641;-77
2023/12/17 01:03:21;;;;;;;16.58;10.80;;;;;;;-147.90;100.00;59510.75;4992193;28;20050;-76
2023/12/17 01:05:47;;;;;;;15.35;10.43;;;;;;;-147.90;100.00;59510.75;4990485;28;20046;-77
2023/12/17 01:08:14;;;;;;;16.35;11.00;;;;;;;-147.90;100.00;59510.75;4989064;28;20420;-77
2023/12/17 01:10:43;;;;;;;14.98;11.15;;;;;;;-147.90;100.00;59510.75;4989536;28;20049;-78
2023/12/17 01:13:11;;;;;;;19.58;14.27;;;;;;;-147.90;100.00;59510.75;4991304;28;20080;-77
2023/12/17 01:15:38;;;;;;;17.15;12.55;;;;;;;-147.90;100.00;59510.75;4990508;28;20138;-78
2023/12/17 01:18:05;;;;;;;18.85;12.43;;;;;;;-147.90;100.00;59510.75;4998456;28;20054;-78
2023/12/17 01:20:32;;;;;;;16.52;12.52;;;;;;;-147.90;100.00;59510.75;4993207;28;20058;-77
2023/12/17 01:22:59;;;;;;;15.88;11.05;;;;;;;-147.90;100.00;59510.75;4997202;28;20067;-77
2023/12/17 01:25:26;;;;;;;15.00;9.77;;;;;;;-147.90;100.00;59510.75;4989532;28;20378;-76
2023/12/17 01:27:52;;;;;;;13.50;10.07;;;;;;;-147.90;100.00;59510.75;4988267;28;20046;-77
2023/12/17 01:30:21;;;;;;;15.50;10.68;;;;;;;-147.90;100.00;59510.75;4988568;28;20054;-77
2023/12/17 01:32:48;;;;;;;13.52;10.27;;;;;;;-147.90;100.00;59510.75;4989035;28;20058;-76
2023/12/17 01:35:15;;;;;;;14.70;10.43;;;;;;;-147.90;100.00;59510.75;4992291;28;20056;-77
2023/12/17 01:37:42;;;;;;;13.25;10.30;;;;;;;-147.90;100.00;59510.75;4989658;28;20050;-77
2023/12/17 01:40:10;;;;;;;16.77;10.93;;;;;;;-147.90;100.00;59510.75;4990510;28;20411;-76
2023/12/17 01:42:37;;;;;;;12.85;9.98;;;;;;;-147.90;100.00;59510.75;4990537;28;20050;-77
2023/12/17 01:45:06;;;;;;;13.30;9.50;;;;;;;-147.90;100.00;59510.75;4989884;28;20140;-78
2023/12/17 01:47:35;;;;;;;13.73;9.13;;;;;;;-147.90;100.00;59510.75;4989877;28;20137;-78
2023/12/17 01:50:02;;;;;;;13.88;10.23;;;;;;;-147.90;100.00;59510.75;4993512;28;20057;-77
2023/12/17 01:52:29;;;;;;;13.52;9.88;;;;;;;-147.90;100.00;59510.75;4989650;28;20060;-78
2023/12/17 01:54:56;;;;;;;13.23;9.50;;;;;;;-147.90;100.00;59510.75;4994377;28;20056;-78
2023/12/17 01:57:23;;;;;;;13.13;9.30;;;;;;;-147.90;100.00;59510.75;4991592;28;20057;-77
2023/12/17 01:59:51;;;;;;;12.55;9.05;;;;;;;-147.90;100.00;59510.75;4989007;28;20131;-78
2023/12/17 02:02:18;;;;;;;11.65;8.68;;;;;;;-147.90;100.00;59510.75;4990425;28;20054;-79
2023/12/17 02:04:47;;;;;;;12.45;9.23;;;;;;;-147.90;100.00;59510.75;4992116;28;20133;-77
2023/12/17 02:07:14;;;;;;;13.13;9.05;;;;;;;-147.90;100.00;59510.75;4988982;28;20605;-78
2023/12/17 02:09:42;;;;;;;13.13;9.02;;;;;;;-147.90;100.00;59510.75;4993827;28;20054;-78
2023/12/17 02:12:10;;;;;;;15.82;12.73;;;;;;;-147.90;100.00;59510.75;4990830;28;20057;-79
2023/12/17 02:14:37;;;;;;;21.85;11.18;;;;;;;-147.90;100.00;59510.75;4990348;28;20605;-78
2023/12/17 02:17:04;;;;;;;17.73;12.07;;;;;;;-147.90;100.00;59510.75;4991549;28;20053;-77
2023/12/17 02:19:32;;;;;;;16.15;10.63;;;;;;;-147.90;100.00;59510.75;4988495;28;20054;-78
2023/12/17 02:22:00;;;;;;;19.48;12.27;;;;;;;-147.90;100.00;59510.75;4988484;28;20496;-76
2023/12/17 02:24:28;;;;;;;20.50;12.38;;;;;;;-147.90;100.00;59510.75;4992551;28;20062;-76
2023/12/17 02:26:57;;;;;;;21.63;13.93;;;;;;;-147.90;100.00;59510.75;4992107;28;20060;-76
2023/12/17 02:29:24;;;;;;;23.65;13.13;;;;;;;-147.90;100.00;59510.75;4995690;28;20081;-76
2023/12/17 02:31:51;;;;;;;22.75;14.88;;;;;;;-147.90;100.00;59510.75;4997123;28;20054;-76
2023/12/17 02:34:18;;;;;;;29.15;16.85;;;;;;;-147.90;100.00;59510.75;4992209;28;20054;-76
2023/12/17 02:36:44;;;;;;;29.38;17.58;;;;;;;-147.90;100.00;59510.75;4997836;28;20463;-78
2023/12/17 02:39:11;;;;;;;22.90;14.23;;;;;;;-147.90;100.00;59510.75;5005086;28;20049;-79
2023/12/17 02:41:40;;;;;;;26.70;16.60;;;;;;;-147.90;100.00;59510.75;5003228;28;20041;-78
2023/12/17 02:44:07;;;;;;;26.90;16.63;;;;;;;-147.90;100.00;59510.75;4991104;28;20454;-78
2023/12/17 02:46:34;;;;;;;88.50;36.03;;;;;;;-147.90;100.00;59510.75;4993484;28;20086;-78
2023/12/17 02:49:01;;;;;;;367.90;135.45;;;;;;;-147.90;100.00;59510.75;4993136;28;20842;-78
2023/12/17 02:51:27;;;;;;;139.23;54.95;;;;;;;-147.90;100.00;59510.75;4995344;28;20126;-78
2023/12/17 02:53:54;;;;;;;28.80;17.70;;;;;;;-147.90;100.00;59510.75;4995506;28;20066;-78
2023/12/17 02:56:21;;;;;;;209.27;109.07;;;;;;;-147.90;100.00;59510.75;4990959;28;20068;-77
2023/12/17 02:58:50;;;;;;;151.63;74.53;;;;;;;-147.90;100.00;59510.75;4991631;28;20064;-77
2023/12/17 03:01:17;;;;;;;52.90;29.65;;;;;;;-147.90;100.00;59510.75;4994387;28;20050;-77
2023/12/17 03:03:43;;;;;;;42.72;25.52;;;;;;;-147.90;100.00;59510.75;4989643;28;20522;-78
2023/12/17 03:06:11;;;;;;;41.33;24.42;;;;;;;-147.90;100.00;59510.75;4995558;28;20054;-78
2023/12/17 03:08:39;;;;;;;34.75;20.15;;;;;;;-147.90;100.00;59510.75;4995531;28;20081;-78
2023/12/17 03:11:06;;;;;;;29.67;19.13;;;;;;;-147.90;100.00;59510.75;4997521;28;20054;-79
2023/12/17 03:13:33;;;;;;;31.50;18.15;;;;;;;-147.90;100.00;59510.75;4994790;28;20526;-77
2023/12/17 03:16:01;;;;;;;31.75;18.42;;;;;;;-147.90;100.00;59510.75;4998936;28;20133;-76
2023/12/17 03:18:28;;;;;;;29.30;17.80;;;;;;;-147.90;100.00;59510.75;4999092;28;20056;-76
2023/12/17 03:20:55;;;;;;;27.02;16.88;;;;;;;-147.90;100.00;59510.75;4996238;28;20065;-78
2023/12/17 03:23:22;;;;;;;27.40;16.25;;;;;;;-147.90;100.00;59510.75;4993103;28;20161;-76
2023/12/17 03:25:49;;;;;;;24.17;15.45;;;;;;;-147.90;100.00;59510.75;4990772;28;20504;-78
2023/12/17 03:28:15;;;;;;;35.33;23.13;;;;;;;-147.90;100.00;59510.75;4992509;28;20117;-78
2023/12/17 03:30:42;;;;;;;33.90;19.98;;;;;;;-147.90;100.00;59510.75;4999215;28;20076;-77
2023/12/17 03:33:11;;;;;;;36.17;22.40;;;;;;;-147.90;100.00;59510.75;5000286;28;20795;-78
2023/12/17 03:35:38;;;;;;;37.92;23.42;;;;;;;-147.90;100.00;59510.75;4997945;28;20061;-78
2023/12/17 03:38:05;;;;;;;31.55;20.77;;;;;;;-147.90;100.00;59510.75;4997394;28;20133;-78
2023/12/17 03:40:32;;;;;;;27.90;18.10;;;;;;;-147.90;100.00;59510.75;4997210;28;20050;-78
2023/12/17 03:42:59;;;;;;;26.33;18.77;;;;;;;-147.90;100.00;59510.75;4998163;28;20046;-78
2023/12/17 03:45:26;;;;;;;22.80;16.10;;;;;;;-147.90;100.00;59510.75;4996168;28;20046;-77
2023/12/17 03:47:53;;;;;;;22.42;16.92;;;;;;;-147.90;100.00;59510.75;4994887;28;20056;-77
2023/12/17 03:50:21;;;;;;;29.50;22.63;;;;;;;-147.90;100.00;59510.75;4991409;28;20046;-77
2023/12/17 03:52:49;;;;;;;26.20;18.13;;;;;;;-147.90;100.00;59510.75;4993874;28;20054;-75
2023/12/17 03:55:16;;;;;;;24.48;17.80;;;;;;;-147.90;100.00;59510.75;4993260;28;20537;-75
2023/12/17 03:57:43;;;;;;;19.30;12.95;;;;;;;-147.90;100.00;59510.75;4993116;28;20061;-75
2023/12/17 04:00:11;;;;;;;23.33;16.08;;;;;;;-147.90;100.00;59510.75;4990894;28;20419;-75
2023/12/17 04:02:38;;;;;;;22.17;15.77;;;;;;;-147.90;100.00;59510.75;4993295;28;20046;-75
2023/12/17 04:05:06;;;;;;;30.38;21.42;;;;;;;-147.90;100.00;59510.75;4995775;28;20042;-75
2023/12/17 04:07:34;;;;;;;36.05;21.88;;;;;;;-147.90;100.00;59510.75;4991905;28;20045;-75
2023/12/17 04:10:02;;;;;;;30.38;19.20;;;;;;;-147.90;100.00;59510.75;4997436;28;20076;-75
2023/12/17 04:12:29;;;;;;;47.97;24.00;;;;;;;-147.90;100.00;59510.75;4993255;28;20904;-76
2023/12/17 04:14:56;;;;;;;479.40;242.35;;;;;;;-147.90;100.00;59510.75;4994411;28;20056;-78
2023/12/17 04:17:23;;;;;;;130.18;57.55;;;;;;;-147.90;100.00;59510.75;4990143;28;20061;-76
2023/12/17 04:19:50;;;;;;;93.57;42.60;;;;;;;-147.90;100.00;59510.75;4996128;28;20054;-76
2023/12/17 04:22:17;;;;;;;68.22;32.53;;;;;;;-147.90;100.00;59510.75;4992912;28;20545;-76
2023/12/17 04:24:45;;;;;;;33.03;16.67;;;;;;;-147.90;100.00;59510.75;4992022;28;20496;-76
2023/12/17 04:27:12;;;;;;;38.15;19.02;;;;;;;-147.90;100.00;59510.75;4992204;28;20048;-77
2023/12/17 04:29:41;;;;;;;41.83;21.90;;;;;;;-147.90;100.00;59510.75;4990722;28;20164;-76
2023/12/17 04:32:08;;;;;;;42.20;20.65;;;;;;;-147.90;100.00;59510.75;4991971;28;20050;-76
2023/12/17 04:34:35;;;;;;;31.60;18.13;;;;;;;-147.90;100.00;59510.75;4994645;28;20849;-76
2023/12/17 04:37:02;;;;;;;34.70;18.90;;;;;;;-147.90;100.00;59510.75;4996110;28;20060;-76
2023/12/17 04:39:29;;;;;;;42.70;19.42;;;;;;;-147.90;100.00;59510.75;4991412;28;20064;-76
2023/12/17 04:41:57;;;;;;;36.13;21.48;;;;;;;-147.90;100.00;59510.75;4990162;28;20054;-77
2023/12/17 04:44:24;;;;;;;40.13;21.15;;;;;;;-147.90;100.00;59510.75;4992275;28;20064;-76
2023/12/17 04:46:51;;;;;;;50.65;26.42;;;;;;;-147.90;100.00;59510.75;4990808;28;20053;-77
2023/12/17 04:49:18;;;;;;;49.42;27.13;;;;;;;-147.90;100.00;59510.75;4992772;28;20545;-77
2023/12/17 04:51:45;;;;;;;64.28;37.35;;;;;;;-147.90;100.00;59510.75;4996153;28;20054;-75
2023/12/17 04:54:14;;;;;;;60.45;33.50;;;;;;;-147.90;100.00;59510.75;4992713;28;20054;-76
2023/12/17 04:56:41;;;;;;;51.00;27.08;;;;;;;-147.90;100.00;59510.75;4992311;28;20057;-76
2023/12/17 04:59:09;;;;;;;56.83;29.20;;;;;;;-147.90;100.00;59510.75;4990810;28;20050;-76
2023/12/17 05:01:36;;;;;;;74.15;36.92;;;;;;;-147.90;100.00;59510.75;4989280;28;20047;-76
2023/12/17 05:04:03;;;;;;;51.70;22.73;;;;;;;-147.90;100.00;59510.75;4989812;28;20050;-75
2023/12/17 05:06:30;;;;;;;46.78;21.25;;;;;;;-147.90;100.00;59510.75;4990479;28;20060;-77
2023/12/17 05:08:57;;;;;;;63.35;28.42;;;;;;;-147.90;100.00;59510.75;4995995;28;20496;-76
2023/12/17 05:11:24;;;;;;;59.22;26.10;;;;;;;-147.90;100.00;59510.75;5002159;28;20054;-76
2023/12/17 05:13:51;;;;;;;52.95;26.10;;;;;;;-147.90;100.00;59510.75;4995599;28;20054;-76
2023/12/17 05:16:19;;;;;;;53.72;24.13;;;;;;;-147.90;100.00;59510.75;4990285;28;20065;-76
2023/12/17 05:18:46;;;;;;;37.97;17.05;;;;;;;-147.90;100.00;59510.75;4993095;28;20050;-76
2023/12/17 05:21:13;;;;;;;46.88;17.42;;;;;;;-147.90;100.00;59510.75;4995852;28;20594;-76
2023/12/17 05:23:40;;;;;;;43.15;19.10;;;;;;;-147.90;100.00;59510.75;4989760;28;20050;-76
2023/12/17 05:26:07;;;;;;;48.20;22.83;;;;;;;-147.90;100.00;59510.75;4989804;28;20072;-75
2023/12/17 05:28:34;;;;;;;42.88;21.80;;;;;;;-147.90;100.00;59510.75;4988920;28;20054;-76
2023/12/17 05:31:01;;;;;;;50.67;22.58;;;;;;;-147.90;100.00;59510.75;5000922;28;20054;-76
2023/12/17 05:33:29;;;;;;;44.53;23.02;;;;;;;-147.90;100.00;59510.75;4988880;28;20415;-76
2023/12/17 05:35:56;;;;;;;44.53;24.70;;;;;;;-147.90;100.00;59510.75;4990724;28;20056;-77
2023/12/17 05:38:23;;;;;;;49.60;24.25;;;;;;;-147.90;100.00;59510.75;4989885;28;20128;-76
2023/12/17 05:40:51;;;;;;;43.22;22.33;;;;;;;-147.90;100.00;59510.75;4991881;28;20105;-76
2023/12/17 05:43:18;;;;;;;65.80;31.58;;;;;;;-147.90;100.00;59510.75;4991533;28;20050;-76
2023/12/17 05:45:45;;;;;;;88.10;41.58;;;;;;;-147.90;100.00;59510.75;4988208;28;20065;-76
2023/12/17 05:48:11;;;;;;;59.38;30.45;;;;;;;-147.90;100.00;59510.75;4988457;28;20052;-75
2023/12/17 05:50:40;;;;;;;65.10;32.20;;;;;;;-147.90;100.00;59510.75;4996212;28;20046;-76
2023/12/17 05:53:07;;;;;;;77.25;38.78;;;;;;;-147.90;100.00;59510.75;4993876;28;20129;-75
2023/12/17 05:55:34;;;;;;;67.97;32.78;;;;;;;-147.90;100.00;59510.75;4988376;28;20076;-75
2023/12/17 05:58:00;;;;;;;51.55;29.15;;;;;;;-147.90;100.00;59510.75;4987842;28;20082;-75
2023/12/17 06:00:27;;;;;;;63.75;31.38;;;;;;;-147.90;100.00;59510.75;4991997;28;20042;-76
2023/12/17 06:02:54;;;;;;;65.80;34.47;;;;;;;-147.90;100.00;59510.75;4990513;28;20056;-76
2023/12/17 06:05:21;;;;;;;62.72;35.60;;;;;;;-147.90;100.00;59510.75;4997996;28;20058;-75
2023/12/17 06:07:50;;;;;;;54.72;31.00;;;;;;;-147.90;100.00;59510.75;4992093;28;20046;-76
2023/12/17 06:10:17;;;;;;;53.72;28.98;;;;;;;-147.90;100.00;59510.75;4993884;28;20077;-75
2023/12/17 06:12:44;;;;;;;55.00;28.90;;;;;;;-147.90;100.00;59510.75;4993327;28;20415;-75
2023/12/17 06:15:11;;;;;;;58.85;32.30;;;;;;;-147.90;100.00;59510.75;4992218;28;20056;-75
2023/12/17 06:17:38;;;;;;;61.50;32.80;;;;;;;-147.90;100.00;59510.75;4991660;28;20049;-75
2023/12/17 06:20:06;;;;;;;60.90;31.42;;;;;;;-147.90;100.00;59510.75;4991415;28;20062;-75
2023/12/17 06:22:34;;;;;;;67.95;33.58;;;;;;;-147.90;100.00;59510.75;4993597;28;20046;-75
2023/12/17 06:25:02;;;;;;;60.20;30.95;;;;;;;-147.90;100.00;59510.75;4995997;28;20050;-75
2023/12/17 06:27:30;;;;;;;62.53;32.00;;;;;;;-147.90;100.00;59510.75;5009489;28;20086;-75
2023/12/17 06:29:56;;;;;;;67.07;33.97;;;;;;;-147.90;100.00;59510.75;4996571;28;20073;-75
2023/12/17 06:32:23;;;;;;;68.25;37.35;;;;;;;-147.90;100.00;59510.75;4998891;28;20064;-76
2023/12/17 06:34:50;;;;;;;70.18;37.25;;;;;;;-147.90;100.00;59510.75;5005095;28;20046;-75
2023/12/17 06:37:17;;;;;;;77.65;40.00;;;;;;;-147.90;100.00;59510.75;5001040;28;20053;-76
2023/12/17 06:39:44;;;;;;;67.25;34.67;;;;;;;-147.90;100.00;59510.75;5004573;28;20052;-75
2023/12/17 06:42:13;;;;;;;75.82;39.05;;;;;;;-147.90;100.00;59510.75;5002856;28;20049;-75
2023/12/17 06:44:39;;;;;;;89.57;47.85;;;;;;;-147.90;100.00;59510.75;4999874;28;20046;-76
2023/12/17 06:47:06;;;;;;;97.90;48.20;;;;;;;-147.90;100.00;59510.75;5002225;28;20149;-76
2023/12/17 06:49:33;;;;;;;84.72;41.42;;;;;;;-147.90;100.00;59510.75;4998564;28;20042;-76
2023/12/17 06:52:00;;;;;;;82.75;38.30;;;;;;;-147.90;100.00;59510.75;5000992;28;20088;-76
2023/12/17 06:54:27;;;;;;;75.15;40.78;;;;;;;-147.90;100.00;59510.75;5000414;28;20423;-76
2023/12/17 06:56:54;;;;;;;80.90;41.25;;;;;;;-147.90;100.00;59510.75;4998006;28;20056;-75
2023/12/17 06:59:23;;;;;;;81.53;37.38;;;;;;;-147.90;100.00;59510.75;4999696;28;20397;-75
2023/12/17 07:01:50;;;;;;;76.63;36.88;;;;;;;-147.90;100.00;59510.75;5001498;28;20056;-75
2023/12/17 07:04:17;;;;;;;102.18;54.53;;;;;;;-147.90;100.00;59510.75;4999000;28;20510;-75
2023/12/17 07:06:44;;;;;;;89.82;45.95;;;;;;;-147.90;100.00;59510.75;4998623;28;20471;-76
2023/12/17 07:09:11;;;;;;;103.97;58.47;;;;;;;-147.90;100.00;59510.75;4997807;28;20053;-75
2023/12/17 07:11:38;;;;;;;79.50;41.22;;;;;;;-147.90;100.00;59510.75;4999792;28;21400;-76
2023/12/17 07:14:05;;;;;;;89.82;49.90;;;;;;;-147.90;100.00;59510.75;4999863;28;20057;-76
2023/12/17 07:16:33;;;;;;;79.63;41.17;;;;;;;-147.90;100.00;59510.75;5001885;28;20052;-76
2023/12/17 07:19:00;;;;;;;72.72;37.47;;;;;;;-147.90;100.00;59510.75;4999575;28;20042;-76
2023/12/17 07:21:27;;;;;;;85.10;39.55;;;;;;;-147.90;100.00;59510.75;4999328;28;20046;-78
2023/12/17 07:23:56;;;;;;;77.18;37.90;;;;;;;-147.90;100.00;59510.75;4999167;28;20523;-77
2023/12/17 07:26:23;;;;;;;85.45;44.92;;;;;;;-147.90;100.00;59510.75;4999894;28;20518;-77
2023/12/17 07:28:51;;;;;;;84.03;42.97;;;;;;;-147.90;100.00;59510.75;5001588;28;20129;-77
2023/12/17 07:31:19;;;;;;;62.28;33.83;;;;;;;-147.90;100.00;59510.75;5002685;28;20065;-76
2023/12/17 07:33:47;;;;;;;67.40;35.88;;;;;;;-147.90;100.00;59510.75;5001673;28;20060;-75
2023/12/17 07:36:14;;;;;;;75.63;40.63;;;;;;;-147.90;100.00;59510.75;5001771;28;20049;-75
2023/12/17 07:38:41;;;;;;;79.95;43.45;;;;;;;-147.90;100.00;59510.75;5000137;28;20054;-76
2023/12/17 07:41:08;;;;;;;81.95;46.80;;;;;;;-147.90;100.00;59510.75;4996655;28;20043;-75
2023/12/17 07:43:35;;;;;;;86.20;47.90;;;;;;;-147.90;100.00;59510.75;4999197;28;20038;-75
2023/12/17 07:46:04;;;;;;;96.10;51.70;;;;;;;-147.90;100.00;59510.75;5001575;28;20046;-75
2023/12/17 07:48:31;;;;;;;99.35;50.22;;;;;;;-147.90;100.00;59510.75;5003549;28;20519;-76
2023/12/17 07:51:01;;;;;;;81.65;44.08;;;;;;;-147.90;100.00;59510.75;4999185;28;20146;-76
2023/12/17 07:53:28;;;;;;;89.18;45.47;;;;;;;-147.90;100.00;59510.75;4999662;28;20057;-75
2023/12/17 07:55:57;;;;;;;91.65;43.90;;;;;;;-147.90;100.00;59510.75;5002473;28;20050;-76
2023/12/17 07:58:25;;;;;;;89.18;45.50;;;;;;;-147.90;100.00;59510.75;4999131;28;20137;-76
2023/12/17 08:00:52;;;;;;;94.72;51.33;;;;;;;-147.90;100.00;59510.75;5002061;28;20068;-75
2023/12/17 08:03:20;;;;;;;91.20;47.90;;;;;;;-147.90;100.00;59510.75;5000281;28;20053;-75
2023/12/17 08:05:47;;;;;;;91.43;46.80;;;;;;;-147.90;100.00;59510.75;5000387;28;20058;-75
2023/12/17 08:08:16;;;;;;;88.80;43.80;;;;;;;-147.90;100.00;59510.75;5001287;28;20042;-75
2023/12/17 08:10:43;;;;;;;78.47;42.83;;;;;;;-147.90;100.00;59510.75;5001163;28;20048;-75
2023/12/17 08:13:10;;;;;;;83.10;44.28;;;;;;;-147.90;100.00;59510.75;4999017;28;20046;-76
2023/12/17 08:15:37;;;;;;;91.80;49.15;;;;;;;-147.90;100.00;59510.75;5001916;28;20050;-76
2023/12/17 08:18:04;;;;;;;86.55;48.70;;;;;;;-147.90;100.00;59510.75;5000513;28;20042;-75
2023/12/17 08:20:31;;;;;;;81.22;48.38;;;;;;;-147.90;100.00;59510.75;4995359;28;20061;-75
2023/12/17 08:22:58;;;;;;;104.55;63.78;;;;;;;-147.90;100.00;59510.75;4996136;28;20046;-75
2023/12/17 08:25:26;;;;;;;82.55;48.25;;;;;;;-147.90;100.00;59510.75;4997753;28;20057;-75
2023/12/17 08:27:53;;;;;;;94.43;52.17;;;;;;;-147.90;100.00;59510.75;5000426;28;20064;-75
2023/12/17 08:30:20;;;;;;;84.93;48.15;;;;;;;-147.90;100.00;59510.75;5000658;28;20052;-75
2023/12/17 08:32:47;;;;;;;81.68;46.53;;;;;;;-147.90;100.00;59510.75;4998273;28;20052;-75
2023/12/17 08:35:14;;;;;;;70.80;41.10;;;;;;;-147.90;100.00;59510.75;4998650;28;20054;-75
2023/12/17 08:37:41;;;;;;;76.50;40.40;;;;;;;-147.90;100.00;59510.75;4996681;28;20150;-76
2023/12/17 08:40:09;;;;;;;70.45;40.40;;;;;;;-147.90;100.00;59510.75;5001968;28;20043;-75
2023/12/17 08:42:37;;;;;;;60.95;36.22;;;;;;;-147.90;100.00;59510.75;4995772;28;20049;-75
2023/12/17 08:45:05;;;;;;;59.83;34.38;;;;;;;-147.90;100.00;59510.75;4999179;28;20046;-75
2023/12/17 08:47:32;;;;;;;66.60;38.30;;;;;;;-147.90;100.00;59510.75;4999015;28;20060;-75
2023/12/17 08:50:01;;;;;;;75.68;45.80;;;;;;;-147.90;100.00;59510.75;4999241;28;20038;-75
2023/12/17 08:52:29;;;;;;;62.95;35.00;;;;;;;-147.90;100.00;59510.75;4996446;28;20475;-75
2023/12/17 08:54:55;;;;;;;49.65;30.00;;;;;;;-147.90;100.00;59510.75;4994356;28;20061;-75
2023/12/17 08:57:22;;;;;;;48.30;25.58;;;;;;;-147.90;100.00;59510.75;4991726;28;20071;-75
2023/12/17 08:59:51;;;;;;;45.58;27.30;;;;;;;-147.90;100.00;59510.75;4989570;28;20046;-75
2023/12/17 09:02:18;;;;;;;46.47;25.75;;;;;;;-147.90;100.00;59510.75;4990704;28;20050;-75
2023/12/17 09:04:45;;;;;;;51.45;29.90;;;;;;;-147.90;100.00;59510.75;4992546;28;20054;-76
2023/12/17 09:07:12;;;;;;;55.83;31.65;;;;;;;-147.90;100.00;59510.75;4989905;28;20050;-76
2023/12/17 09:09:39;;;;;;;43.58;26.33;;;;;;;-147.90;100.00;59510.75;4991520;28;20064;-76
2023/12/17 09:12:06;;;;;;;36.70;23.33;;;;;;;-147.90;100.00;59510.75;4989635;28;20050;-75
2023/12/17 09:14:35;;;;;;;30.23;19.08;;;;;;;-147.90;100.00;59510.75;4991542;28;20046;-75
2023/12/17 09:17:03;;;;;;;14.07;9.68;;;;;;;-147.90;100.00;59510.75;4989793;28;20054;-75
2023/12/17 09:19:30;;;;;;;31.45;20.30;;;;;;;-147.90;100.00;59510.75;4993315;28;20060;-75
2023/12/17 09:21:57;;;;;;;14.15;9.48;;;;;;;-147.90;100.00;59510.75;4991398;28;20129;-75
2023/12/17 09:24:24;;;;;;;9.63;7.00;;;;;;;-147.90;100.00;59510.75;4991021;28;20830;-75
2023/12/17 09:26:51;;;;;;;13.75;8.10;;;;;;;-147.90;100.00;59510.75;4990549;28;20056;-76
2023/12/17 09:29:18;;;;;;;11.52;7.82;;;;;;;-147.90;100.00;59510.75;4995819;28;20050;-76
2023/12/17 09:31:45;;;;;;;18.27;10.95;;;;;;;-147.90;100.00;59510.75;4990386;28;20718;-76
2023/12/17 09:34:14;;;;;;;20.58;13.50;;;;;;;-147.90;100.00;59510.75;4990110;28;20559;-75
2023/12/17 09:36:41;;;;;;;21.73;14.95;;;;;;;-147.90;100.00;59510.75;4992833;28;20054;-76
2023/12/17 09:39:08;;;;;;;14.10;9.80;;;;;;;-147.90;100.00;59510.75;4993092;28;20050;-76
2023/12/17 09:41:35;;;;;;;14.38;9.85;;;;;;;-147.90;100.00;59510.75;4991304;28;20590;-76
2023/12/17 09:44:05;;;;;;;10.52;7.70;;;;;;;-147.90;100.00;59510.75;4993002;28;20050;-74
2023/12/17 09:46:32;;;;;;;13.23;9.07;;;;;;;-147.90;100.00;59510.75;4990562;28;20081;-75
2023/12/17 09:49:00;;;;;;;17.77;13.10;;;;;;;-147.90;100.00;59510.75;4991770;28;20965;-75
2023/12/17 09:51:29;;;;;;;22.08;16.40;;;;;;;-147.90;100.00;59510.75;4991053;28;20057;-75
2023/12/17 09:53:58;;;;;;;23.60;17.48;;;;;;;-147.90;100.00;59510.75;4992404;28;20058;-75
2023/12/17 09:56:25;;;;;;;25.67;18.88;;;;;;;-147.90;100.00;59510.75;4991257;28;20050;-75
2023/12/17 09:58:52;;;;;;;20.13;15.25;;;;;;;-147.90;100.00;59510.75;4992744;28;20049;-76
2023/12/17 10:01:20;;;;;;;22.17;16.58;;;;;;;-147.90;100.00;59510.75;4992010;28;20057;-76
2023/12/17 10:03:47;;;;;;;21.98;15.40;;;;;;;-147.90;100.00;59510.75;4989795;28;20073;-76
2023/12/17 10:06:14;;;;;;;22.58;15.82;;;;;;;-147.90;100.00;59510.75;4990944;28;20054;-76
2023/12/17 10:08:42;;;;;;;24.02;15.45;;;;;;;-147.90;100.00;59510.75;4992067;28;20050;-76
2023/12/17 10:11:09;;;;;;;26.05;17.13;;;;;;;-147.90;100.00;59510.75;4989900;28;20056;-76
2023/12/17 10:13:36;;;;;;;21.73;16.65;;;;;;;-147.90;100.00;59510.75;4993476;28;20046;-76
2023/12/17 10:16:04;;;;;;;21.52;16.05;;;;;;;-147.90;100.00;59510.75;4994619;28;20059;-76
2023/12/17 10:18:31;;;;;;;28.30;18.35;;;;;;;-147.90;100.00;59510.75;4993520;28;20129;-76
2023/12/17 10:20:58;;;;;;;23.63;17.23;;;;;;;-147.90;100.00;59510.75;4991414;28;20101;-75
2023/12/17 10:23:25;;;;;;;18.58;13.98;;;;;;;-147.90;100.00;59510.75;4991035;28;20498;-75
2023/12/17 10:26:01;;;;;;;20.52;15.52;;;;;;;-147.90;100.00;59510.75;4991581;28;20562;-75
2023/12/17 10:28:28;;;;;;;27.95;19.90;;;;;;;-147.90;100.00;59510.75;4987811;28;20050;-75
2023/12/17 10:30:55;;;;;;;25.52;15.98;;;;;;;-147.90;100.00;59510.75;4988521;28;20049;-75
2023/12/17 10:33:29;;;;;;;24.63;17.45;;;;;;;-147.90;100.00;59510.75;4991712;28;20456;-75
2023/12/17 10:35:56;;;;;;;26.45;18.60;;;;;;;-147.90;100.00;59510.75;4996991;28;20050;-75
2023/12/17 10:38:24;;;;;;;22.95;16.08;;;;;;;-147.90;100.00;59510.75;4992387;28;20050;-75
2023/12/17 10:40:52;;;;;;;27.50;17.52;;;;;;;-147.90;100.00;59510.75;4994287;28;20080;-75
2023/12/17 10:43:23;;;;;;;25.35;16.33;;;;;;;-147.90;100.00;59510.75;4988660;28;20052;-75
2023/12/17 10:45:52;;;;;;;26.80;19.63;;;;;;;-147.90;100.00;59510.75;4990241;28;20050;-75
2023/12/17 10:48:20;;;;;;;28.27;19.65;;;;;;;-147.90;100.00;59510.75;4993410;28;20052;-76
2023/12/17 10:50:50;;;;;;;38.45;25.95;;;;;;;-147.90;100.00;59510.75;4993601;28;20061;-76
2023/12/17 10:53:16;;;;;;;18.98;13.43;;;;;;;-147.90;100.00;59510.75;4994480;28;20050;-75
2023/12/17 10:55:44;;;;;;;20.05;14.30;;;;;;;-147.90;100.00;59510.75;4994368;28;20064;-75